createdAt,value
2023-02-14T00:01:54.860Z,-0.03
2023-02-14T00:04:22.659Z,0.76
2023-02-14T00:06:50.329Z,0.39
2023-02-14T00:09:21.190Z,0.27
2023-02-14T00:11:51.548Z,0.07
2023-02-14T00:14:37.083Z,0.02
2023-02-14T00:17:04.701Z,0.57
2023-02-14T00:19:34.641Z,0.71
2023-02-14T00:22:02.173Z,0.68
2023-02-14T00:24:30.024Z,0.68
2023-02-14T00:26:58.873Z,0.57
2023-02-14T00:29:28.376Z,0.70
2023-02-14T00:31:56.222Z,0.99
2023-02-14T00:34:23.808Z,1.07
2023-02-14T00:36:51.692Z,1.19
2023-02-14T00:39:19.720Z,1.11
2023-02-14T00:41:47.399Z,1.07
2023-02-14T00:44:16.487Z,1.29
2023-02-14T00:46:43.966Z,1.79
2023-02-14T00:49:11.704Z,1.53
2023-02-14T00:51:39.352Z,2.01
2023-02-14T00:54:07.064Z,2.62
2023-02-14T00:56:34.777Z,2.55
2023-02-14T00:59:02.368Z,2.02
2023-02-14T01:01:31.330Z,2.18
2023-02-14T01:03:59.839Z,1.87
2023-02-14T01:06:27.599Z,2.32
2023-02-14T01:08:55.092Z,2.41
2023-02-14T01:11:24.078Z,2.42
2023-02-14T01:13:53.377Z,1.97
2023-02-14T01:16:23.075Z,2.22
2023-02-14T01:18:52.665Z,2.15
2023-02-14T01:21:22.163Z,2.41
2023-02-14T01:23:52.557Z,2.23
2023-02-14T01:26:21.175Z,2.40
2023-02-14T01:28:48.989Z,2.32
2023-02-14T01:31:18.386Z,2.11
2023-02-14T01:33:47.594Z,2.11
2023-02-14T01:36:21.267Z,2.09
2023-02-14T01:38:49.251Z,2.28
2023-02-14T01:41:16.751Z,2.04
2023-02-14T01:43:56.787Z,3.31
2023-02-14T01:46:26.001Z,3.43
2023-02-14T01:48:56.125Z,3.23
2023-02-14T01:51:25.108Z,3.83
2023-02-14T01:53:52.785Z,3.40
2023-02-14T01:56:23.025Z,3.50
2023-02-14T01:58:53.124Z,3.67
2023-02-14T02:01:20.707Z,3.53
2023-02-14T02:03:54.012Z,3.58
2023-02-14T02:06:25.565Z,3.46
2023-02-14T02:09:00.072Z,3.21
2023-02-14T02:11:28.325Z,3.34
2023-02-14T02:13:56.161Z,3.27
2023-02-14T02:16:34.184Z,2.55
2023-02-14T02:19:22.404Z,2.11
2023-02-14T02:22:05.598Z,2.73
2023-02-14T02:24:34.179Z,2.48
2023-02-14T02:27:12.817Z,2.82
2023-02-14T02:30:07.071Z,3.00
2023-02-14T02:33:09.353Z,3.49
2023-02-14T02:36:01.971Z,3.83
2023-02-14T02:38:44.959Z,3.12
2023-02-14T02:41:17.278Z,3.63
2023-02-14T02:43:50.487Z,3.85
2023-02-14T02:46:39.794Z,3.63
2023-02-14T02:49:14.611Z,3.64
2023-02-14T02:52:06.754Z,3.60
2023-02-14T02:54:36.276Z,3.68
2023-02-14T02:57:08.617Z,3.82
2023-02-14T02:59:39.630Z,4.07
2023-02-14T03:02:12.221Z,3.56
2023-02-14T03:04:54.663Z,3.94
2023-02-14T03:07:39.016Z,3.43
2023-02-14T03:10:10.005Z,3.87
2023-02-14T03:13:15.748Z,3.71
2023-02-14T03:15:55.170Z,3.49
2023-02-14T03:18:56.963Z,3.96
2023-02-14T03:21:30.033Z,3.59
2023-02-14T03:24:00.345Z,3.68
2023-02-14T03:26:36.000Z,1.87
2023-02-14T03:29:10.949Z,1.86
2023-02-14T03:31:46.233Z,1.83
2023-02-14T03:34:17.320Z,2.23
2023-02-14T03:36:49.560Z,2.14
2023-02-14T03:39:22.977Z,2.70
2023-02-14T03:41:52.819Z,2.88
2023-02-14T03:44:22.383Z,2.20
2023-02-14T03:46:53.021Z,3.11
2023-02-14T03:49:23.173Z,3.52
2023-02-14T03:51:52.324Z,3.64
2023-02-14T03:54:22.087Z,2.73
2023-02-14T03:56:51.867Z,2.39
2023-02-14T03:59:23.990Z,2.52
2023-02-14T04:01:54.590Z,2.13
2023-02-14T04:04:25.250Z,1.98
2023-02-14T04:06:54.139Z,1.90
2023-02-14T04:09:22.975Z,1.83
2023-02-14T04:11:51.269Z,2.77
2023-02-14T04:14:18.764Z,3.42
2023-02-14T04:17:03.954Z,3.65
2023-02-14T04:19:31.423Z,2.47
2023-02-14T04:21:58.940Z,3.45
2023-02-14T04:24:27.737Z,2.96
2023-02-14T04:27:15.254Z,3.80
2023-02-14T04:29:44.392Z,2.86
2023-02-14T04:32:13.567Z,3.19
2023-02-14T04:34:41.480Z,3.25
2023-02-14T04:37:09.172Z,3.64
2023-02-14T04:39:38.025Z,3.87
2023-02-14T04:42:06.468Z,4.00
2023-02-14T04:44:34.006Z,3.89
2023-02-14T04:47:01.870Z,3.89
2023-02-14T04:49:29.325Z,3.54
2023-02-14T04:51:57.299Z,3.75
2023-02-14T04:54:24.776Z,3.57
2023-02-14T04:56:53.616Z,3.89
2023-02-14T04:59:21.527Z,3.40
2023-02-14T05:01:49.940Z,3.74
2023-02-14T05:04:17.505Z,3.82
2023-02-14T05:06:44.985Z,2.52
2023-02-14T05:09:12.464Z,2.87
2023-02-14T05:11:39.963Z,3.01
2023-02-14T05:14:08.773Z,2.79
2023-02-14T05:16:36.472Z,2.49
2023-02-14T05:19:04.020Z,1.37
2023-02-14T05:21:33.146Z,2.31
2023-02-14T05:24:01.143Z,2.74
2023-02-14T05:26:29.215Z,2.61
2023-02-14T05:28:57.003Z,3.11
2023-02-14T05:31:25.902Z,3.58
2023-02-14T05:33:53.490Z,3.78
2023-02-14T05:36:21.228Z,2.94
2023-02-14T05:38:48.747Z,3.23
2023-02-14T05:41:16.374Z,3.22
2023-02-14T05:43:43.926Z,1.77
2023-02-14T05:46:11.443Z,2.30
2023-02-14T05:48:40.288Z,3.04
2023-02-14T05:51:09.641Z,3.05
2023-02-14T05:53:37.764Z,1.98
2023-02-14T05:56:05.935Z,0.74
2023-02-14T05:58:33.491Z,0.72
2023-02-14T06:01:01.602Z,0.66
2023-02-14T06:03:29.302Z,1.61
2023-02-14T06:05:58.110Z,2.09
2023-02-14T06:08:26.717Z,2.84
2023-02-14T06:10:54.272Z,2.85
2023-02-14T06:13:21.825Z,2.75
2023-02-14T06:15:49.287Z,1.56
2023-02-14T06:18:16.858Z,1.59
2023-02-14T06:20:44.309Z,1.50
2023-02-14T06:23:13.072Z,0.51
2023-02-14T06:25:40.607Z,0.85
2023-02-14T06:28:08.099Z,1.44
2023-02-14T06:30:35.711Z,1.71
2023-02-14T06:33:03.263Z,1.13
2023-02-14T06:35:30.750Z,0.42
2023-02-14T06:37:58.212Z,0.84
2023-02-14T06:40:27.005Z,0.93
2023-02-14T06:42:54.495Z,0.69
2023-02-14T06:45:21.984Z,0.31
2023-02-14T06:47:49.449Z,0.16
2023-02-14T06:50:17.192Z,0.71
2023-02-14T06:52:44.958Z,0.41
2023-02-14T06:55:13.863Z,0.39
2023-02-14T06:57:42.650Z,0.73
2023-02-14T07:00:11.023Z,0.50
2023-02-14T07:02:38.561Z,-0.09
2023-02-14T07:05:06.578Z,0.23
2023-02-14T07:07:34.086Z,1.08
2023-02-14T07:10:01.548Z,0.64
2023-02-14T07:12:29.076Z,0.86
2023-02-14T07:14:58.038Z,2.41
2023-02-14T07:17:25.739Z,1.61
2023-02-14T07:19:53.197Z,1.57
2023-02-14T07:22:21.045Z,1.46
2023-02-14T07:24:48.597Z,1.62
2023-02-14T07:27:16.298Z,1.46
2023-02-14T07:29:43.783Z,0.93
2023-02-14T07:32:12.733Z,2.01
2023-02-14T07:34:40.307Z,0.24
2023-02-14T07:37:07.824Z,1.57
2023-02-14T07:39:35.518Z,2.12
2023-02-14T07:42:03.031Z,2.33
2023-02-14T07:44:30.576Z,2.67
2023-02-14T07:46:58.061Z,1.65
2023-02-14T07:49:26.926Z,2.80
2023-02-14T07:51:54.485Z,2.63
2023-02-14T07:54:22.185Z,1.38
2023-02-14T07:56:49.681Z,2.28
2023-02-14T07:59:17.260Z,3.11
2023-02-14T08:01:44.973Z,3.16
2023-02-14T08:04:13.852Z,3.04
2023-02-14T08:06:43.216Z,3.01
2023-02-14T08:09:11.171Z,3.48
2023-02-14T08:11:56.633Z,3.35
2023-02-14T08:14:24.578Z,2.87
2023-02-14T08:16:52.059Z,3.17
2023-02-14T08:19:19.812Z,3.46
2023-02-14T08:21:48.691Z,3.10
2023-02-14T08:24:16.172Z,2.90
2023-02-14T08:26:43.633Z,3.24
2023-02-14T08:29:11.312Z,2.90
2023-02-14T08:31:39.241Z,3.32
2023-02-14T08:34:07.297Z,3.19
2023-02-14T08:36:35.242Z,1.92
2023-02-14T08:39:05.668Z,2.38
2023-02-14T08:41:33.445Z,1.86
2023-02-14T08:44:01.049Z,2.09
2023-02-14T08:46:29.151Z,1.66
2023-02-14T08:48:56.892Z,1.71
2023-02-14T08:51:25.795Z,1.67
2023-02-14T08:53:53.693Z,1.68
2023-02-14T08:56:23.647Z,2.10
2023-02-14T08:58:53.382Z,2.15
2023-02-14T09:01:21.488Z,2.01
2023-02-14T09:03:50.925Z,2.84
2023-02-14T09:06:18.534Z,2.89
2023-02-14T09:08:46.817Z,2.61
2023-02-14T09:11:15.920Z,2.47
2023-02-14T09:13:45.108Z,2.63
2023-02-14T09:16:14.519Z,2.59
2023-02-14T09:18:42.061Z,2.30
2023-02-14T09:21:10.801Z,2.79
2023-02-14T09:23:38.369Z,2.67
2023-02-14T09:26:07.924Z,2.67
2023-02-14T09:28:36.345Z,2.36
2023-02-14T09:31:11.706Z,2.22
2023-02-14T09:33:39.894Z,2.74
2023-02-14T09:36:13.983Z,2.93
2023-02-14T09:38:41.492Z,2.15
2023-02-14T09:41:10.060Z,2.92
2023-02-14T09:43:40.499Z,2.34
2023-02-14T09:46:12.355Z,2.48
2023-02-14T09:48:43.710Z,2.61
2023-02-14T09:51:15.042Z,3.84
2023-02-14T09:53:45.611Z,3.58
2023-02-14T09:56:18.740Z,3.78
2023-02-14T09:58:55.917Z,3.86
2023-02-14T10:01:28.957Z,5.02
2023-02-14T10:04:18.800Z,5.16
2023-02-14T10:06:51.584Z,5.43
2023-02-14T10:09:32.913Z,5.47
2023-02-14T10:12:02.784Z,5.84
2023-02-14T10:14:35.718Z,5.89
2023-02-14T10:17:06.202Z,6.18
2023-02-14T10:19:38.438Z,6.11
2023-02-14T10:22:12.414Z,6.33
2023-02-14T10:24:44.782Z,6.29
2023-02-14T10:27:34.648Z,6.33
2023-02-14T10:30:04.549Z,5.44
2023-02-14T10:32:39.720Z,6.42
2023-02-14T10:35:17.655Z,5.88
2023-02-14T10:37:56.291Z,6.69
2023-02-14T10:40:41.736Z,6.94
2023-02-14T10:43:21.039Z,7.01
2023-02-14T10:45:57.622Z,6.29
2023-02-14T10:48:36.340Z,6.39
2023-02-14T10:51:08.402Z,5.96
2023-02-14T10:53:48.704Z,6.31
2023-02-14T10:56:21.967Z,6.85
2023-02-14T10:58:51.912Z,6.04
2023-02-14T11:01:20.635Z,4.88
2023-02-14T11:03:54.976Z,4.79
2023-02-14T11:06:24.058Z,4.83
2023-02-14T11:08:56.305Z,4.84
2023-02-14T11:11:28.607Z,5.15
2023-02-14T11:14:01.022Z,5.53
2023-02-14T11:16:36.559Z,5.64
2023-02-14T11:19:22.314Z,5.42
2023-02-14T11:21:52.148Z,6.03
2023-02-14T11:24:28.917Z,4.94
2023-02-14T11:27:00.104Z,6.48
2023-02-14T11:29:32.829Z,5.53
2023-02-14T11:32:11.445Z,4.64
2023-02-14T11:34:44.955Z,4.51
2023-02-14T11:37:26.990Z,4.60
2023-02-14T11:39:56.420Z,5.18
2023-02-14T11:42:37.027Z,5.30
2023-02-14T11:45:06.085Z,6.47
2023-02-14T11:47:34.997Z,5.06
2023-02-14T11:50:06.973Z,4.79
2023-02-14T11:52:35.704Z,5.85
2023-02-14T11:55:03.211Z,4.65
2023-02-14T11:57:34.089Z,4.92
2023-02-14T12:00:03.253Z,5.17
2023-02-14T12:02:37.305Z,5.32
2023-02-14T12:05:16.788Z,5.94
2023-02-14T12:07:45.619Z,5.11
2023-02-14T12:10:25.705Z,5.68
2023-02-14T12:12:56.283Z,6.05
2023-02-14T12:15:27.281Z,5.46
2023-02-14T12:18:00.188Z,4.95
2023-02-14T12:20:29.799Z,5.17
2023-02-14T12:23:02.565Z,6.14
2023-02-14T12:25:37.853Z,6.81
2023-02-14T12:28:07.571Z,5.01
2023-02-14T12:30:36.171Z,6.53
2023-02-14T12:33:05.834Z,6.73
2023-02-14T12:35:42.850Z,6.49
2023-02-14T12:38:13.105Z,5.33
2023-02-14T12:40:52.763Z,4.90
2023-02-14T12:43:43.414Z,4.98
2023-02-14T12:46:21.571Z,5.11
2023-02-14T12:49:01.743Z,4.91
2023-02-14T12:51:34.512Z,4.91
2023-02-14T12:54:20.691Z,5.11
2023-02-14T12:56:52.062Z,5.39
2023-02-14T12:59:27.892Z,5.82
2023-02-14T13:02:03.060Z,4.46
2023-02-14T13:04:58.236Z,4.33
2023-02-14T13:07:39.091Z,4.83
2023-02-14T13:10:15.448Z,4.77
2023-02-14T13:12:52.725Z,7.08
2023-02-14T13:15:28.744Z,6.16
2023-02-14T13:18:00.251Z,6.21
2023-02-14T13:20:37.910Z,5.27
2023-02-14T13:23:12.678Z,6.83
2023-02-14T13:25:42.783Z,5.84
2023-02-14T13:28:13.698Z,5.60
2023-02-14T13:30:43.138Z,5.23
2023-02-14T13:33:20.045Z,5.64
2023-02-14T13:35:47.965Z,5.96
2023-02-14T13:38:18.256Z,6.48
2023-02-14T13:40:47.470Z,7.42
2023-02-14T13:43:56.217Z,5.19
2023-02-14T13:46:52.487Z,5.76
2023-02-14T13:49:31.591Z,5.45
2023-02-14T13:52:01.149Z,6.64
2023-02-14T13:54:45.231Z,6.98
2023-02-14T13:57:36.538Z,7.39
2023-02-14T14:00:40.359Z,5.81
2023-02-14T14:03:08.968Z,5.51
2023-02-14T14:06:00.876Z,5.92
2023-02-14T14:08:46.062Z,5.43
2023-02-14T14:12:00.732Z,5.73
2023-02-14T14:14:39.603Z,5.72
2023-02-14T14:17:23.183Z,6.74
2023-02-14T14:19:50.717Z,7.83
2023-02-14T14:22:19.881Z,7.04
2023-02-14T14:24:56.033Z,7.49
2023-02-14T14:27:25.336Z,7.31
2023-02-14T14:29:55.568Z,8.00
2023-02-14T14:32:27.970Z,7.33
2023-02-14T14:34:59.728Z,7.89
2023-02-14T14:37:28.896Z,8.48
2023-02-14T14:39:58.460Z,8.51
2023-02-14T14:42:28.026Z,8.48
2023-02-14T14:44:58.514Z,8.71
2023-02-14T14:47:28.305Z,7.89
2023-02-14T14:49:59.964Z,6.85
2023-02-14T14:52:33.276Z,7.03
2023-02-14T14:55:01.844Z,8.48
2023-02-14T14:57:29.331Z,8.52
2023-02-14T15:00:21.499Z,7.73
2023-02-14T15:03:02.345Z,8.14
2023-02-14T15:05:33.183Z,7.30
2023-02-14T15:08:15.019Z,6.53
2023-02-14T15:10:43.562Z,6.45
2023-02-14T15:13:31.234Z,7.11
2023-02-14T15:16:02.793Z,7.54
2023-02-14T15:18:31.450Z,7.34
2023-02-14T15:21:00.401Z,7.27
2023-02-14T15:23:28.159Z,7.04
2023-02-14T15:25:55.961Z,6.96
2023-02-14T15:28:32.513Z,7.17
2023-02-14T15:31:03.854Z,7.08
2023-02-14T15:33:32.387Z,7.12
2023-02-14T15:36:03.557Z,7.74
2023-02-14T15:38:32.031Z,8.11
2023-02-14T15:41:00.577Z,7.18
2023-02-14T15:43:32.095Z,7.40
2023-02-14T15:46:14.007Z,7.51
2023-02-14T15:48:42.006Z,7.91
2023-02-14T15:51:17.748Z,8.15
2023-02-14T15:53:46.668Z,7.91
2023-02-14T15:56:20.786Z,8.08
2023-02-14T15:58:48.985Z,7.55
2023-02-14T16:01:21.559Z,6.85
2023-02-14T16:03:51.905Z,6.70
2023-02-14T16:06:32.860Z,6.41
2023-02-14T16:09:00.707Z,6.71
2023-02-14T16:11:31.252Z,7.03
2023-02-14T16:13:59.221Z,6.48
2023-02-14T16:16:57.405Z,6.62
2023-02-14T16:19:39.307Z,6.56
2023-02-14T16:22:07.790Z,6.48
2023-02-14T16:24:36.014Z,6.60
2023-02-14T16:27:06.881Z,6.52
2023-02-14T16:29:35.395Z,6.23
2023-02-14T16:32:16.592Z,5.95
2023-02-14T16:34:47.011Z,5.85
2023-02-14T16:37:21.266Z,6.08
2023-02-14T16:39:49.935Z,5.74
2023-02-14T16:42:18.221Z,5.88
2023-02-14T16:44:45.935Z,6.01
2023-02-14T16:47:16.523Z,5.98
2023-02-14T16:49:44.003Z,5.92
2023-02-14T16:52:13.327Z,5.98
2023-02-14T16:54:40.911Z,5.94
2023-02-14T16:57:20.610Z,5.63
2023-02-14T16:59:48.156Z,5.70
2023-02-14T17:02:19.002Z,5.92
2023-02-14T17:04:47.812Z,5.02
2023-02-14T17:07:16.658Z,5.28
2023-02-14T17:09:48.126Z,5.31
2023-02-14T17:12:17.942Z,5.38
2023-02-14T17:14:47.953Z,5.72
2023-02-14T17:17:17.102Z,5.45
2023-02-14T17:19:44.972Z,4.80
2023-02-14T17:22:13.531Z,4.79
2023-02-14T17:24:41.413Z,3.93
2023-02-14T17:27:09.959Z,3.62
2023-02-14T17:29:37.490Z,2.85
2023-02-14T17:32:05.538Z,3.44
2023-02-14T17:34:34.556Z,2.75
2023-02-14T17:37:02.870Z,2.38
2023-02-14T17:39:30.350Z,2.34
2023-02-14T17:41:58.110Z,2.18
2023-02-14T17:44:28.188Z,2.58
2023-02-14T17:46:55.831Z,2.82
2023-02-14T17:49:23.442Z,2.78
2023-02-14T17:51:52.498Z,2.51
2023-02-14T17:54:20.012Z,2.38
2023-02-14T17:56:48.736Z,2.35
2023-02-14T17:59:16.344Z,2.95
2023-02-14T18:01:44.934Z,2.70
2023-02-14T18:04:12.524Z,3.05
2023-02-14T18:06:40.332Z,3.36
2023-02-14T18:09:09.494Z,2.78
2023-02-14T18:11:40.459Z,3.56
2023-02-14T18:14:08.233Z,2.50
2023-02-14T18:16:37.994Z,3.04
2023-02-14T18:19:06.381Z,3.10
2023-02-14T18:21:35.619Z,3.02
2023-02-14T18:24:03.778Z,3.37
2023-02-14T18:26:33.402Z,3.52
2023-02-14T18:29:06.382Z,3.59
2023-02-14T18:31:34.137Z,3.52
2023-02-14T18:34:02.222Z,3.39
2023-02-14T18:36:31.610Z,3.69
2023-02-14T18:38:59.877Z,3.36
2023-02-14T18:41:28.115Z,2.97
2023-02-14T18:43:57.378Z,2.54
2023-02-14T18:46:27.130Z,2.66
2023-02-14T18:48:55.068Z,2.48
2023-02-14T18:51:26.982Z,2.90
2023-02-14T18:53:54.886Z,2.37
2023-02-14T18:56:25.487Z,2.12
2023-02-14T18:58:58.036Z,1.91
2023-02-14T19:01:29.272Z,1.88
2023-02-14T19:03:59.582Z,2.19
2023-02-14T19:06:32.241Z,2.43
2023-02-14T19:09:00.019Z,2.57
2023-02-14T19:11:31.418Z,2.33
2023-02-14T19:14:02.749Z,2.25
2023-02-14T19:16:32.108Z,2.87
2023-02-14T19:19:00.830Z,3.22
2023-02-14T19:21:31.165Z,3.22
2023-02-14T19:23:59.297Z,2.70
2023-02-14T19:26:29.348Z,2.57
2023-02-14T19:29:01.721Z,2.46
2023-02-14T19:31:36.752Z,2.64
2023-02-14T19:34:05.357Z,1.58
2023-02-14T19:36:35.138Z,2.12
2023-02-14T19:39:02.904Z,2.14
2023-02-14T19:41:34.232Z,2.06
2023-02-14T19:44:05.584Z,2.21
2023-02-14T19:46:33.989Z,2.12
2023-02-14T19:49:02.208Z,1.55
2023-02-14T19:51:31.623Z,1.57
2023-02-14T19:54:00.367Z,2.10
2023-02-14T19:56:32.048Z,2.25
2023-02-14T19:58:59.986Z,1.86
2023-02-14T20:01:31.651Z,1.96
2023-02-14T20:03:59.374Z,2.46
2023-02-14T20:06:27.456Z,2.16
2023-02-14T20:08:54.939Z,1.55
2023-02-14T20:11:30.356Z,1.92
2023-02-14T20:13:58.302Z,1.84
2023-02-14T20:16:27.598Z,2.07
2023-02-14T20:18:56.792Z,1.99
2023-02-14T20:21:28.317Z,2.27
2023-02-14T20:23:57.945Z,2.32
2023-02-14T20:26:25.658Z,2.28
2023-02-14T20:28:53.709Z,2.45
2023-02-14T20:31:22.076Z,2.41
2023-02-14T20:33:51.777Z,2.35
2023-02-14T20:36:22.605Z,2.27
2023-02-14T20:38:55.570Z,2.38
2023-02-14T20:41:22.970Z,2.33
2023-02-14T20:43:50.549Z,2.56
2023-02-14T20:46:18.311Z,2.34
2023-02-14T20:48:46.023Z,2.55
2023-02-14T20:51:15.462Z,2.51
2023-02-14T20:53:46.014Z,2.45
2023-02-14T20:56:14.738Z,1.96
2023-02-14T20:58:42.562Z,2.01
2023-02-14T21:01:12.358Z,2.01
2023-02-14T21:03:40.531Z,1.82
2023-02-14T21:06:11.447Z,1.34
2023-02-14T21:08:39.613Z,1.49
2023-02-14T21:11:09.336Z,1.11
2023-02-14T21:13:37.337Z,1.36
2023-02-14T21:16:06.495Z,1.07
2023-02-14T21:18:34.320Z,1.26
2023-02-14T21:21:06.190Z,1.35
2023-02-14T21:23:33.927Z,1.58
2023-02-14T21:26:01.865Z,1.56
2023-02-14T21:28:30.854Z,1.21
2023-02-14T21:31:05.258Z,0.83
2023-02-14T21:33:33.400Z,0.98
2023-02-14T21:36:06.832Z,0.72
2023-02-14T21:38:34.440Z,0.45
2023-02-14T21:41:04.797Z,0.52
2023-02-14T21:43:36.754Z,0.41
2023-02-14T21:46:05.090Z,0.22
2023-02-14T21:48:51.049Z,0.20
2023-02-14T21:51:18.571Z,0.33
2023-02-14T21:53:46.450Z,0.56
2023-02-14T21:56:17.928Z,0.15
2023-02-14T21:58:47.829Z,0.07
2023-02-14T22:01:17.246Z,0.23
2023-02-14T22:03:44.890Z,0.51
2023-02-14T22:06:13.120Z,0.34
2023-02-14T22:08:41.245Z,0.28
2023-02-14T22:11:10.109Z,0.22
2023-02-14T22:13:37.858Z,0.80
2023-02-14T22:16:08.705Z,-0.02
2023-02-14T22:18:36.601Z,-0.09
2023-02-14T22:21:06.306Z,-0.15
2023-02-14T22:23:34.709Z,-0.33
2023-02-14T22:26:10.190Z,-0.36
2023-02-14T22:28:37.751Z,-0.32
2023-02-14T22:31:06.809Z,-0.25
2023-02-14T22:33:35.548Z,-0.55
2023-02-14T22:36:04.834Z,-0.58
2023-02-14T22:38:32.353Z,-0.68
2023-02-14T22:41:05.718Z,-0.72
2023-02-14T22:43:33.269Z,-0.76
2023-02-14T22:46:03.576Z,-0.46
2023-02-14T22:48:33.252Z,-0.75
2023-02-14T22:51:08.558Z,-0.52
2023-02-14T22:53:36.245Z,-0.68
2023-02-14T22:56:11.974Z,-0.92
2023-02-14T22:58:39.496Z,-1.00
2023-02-14T23:01:07.262Z,-1.05
2023-02-14T23:03:36.359Z,-0.90
2023-02-14T23:06:04.229Z,-0.91
2023-02-14T23:08:32.092Z,-1.31
2023-02-14T23:11:07.262Z,-1.17
2023-02-14T23:13:52.624Z,-1.21
2023-02-14T23:16:38.088Z,-1.28
2023-02-14T23:19:33.393Z,-1.25
2023-02-14T23:22:03.558Z,-1.32
2023-02-14T23:24:31.014Z,-1.44
2023-02-14T23:26:58.718Z,-1.49
2023-02-14T23:29:26.597Z,-1.49
2023-02-14T23:31:54.171Z,-1.48
2023-02-14T23:34:25.627Z,-1.61
2023-02-14T23:36:53.158Z,-1.56
2023-02-14T23:39:20.657Z,-1.56
2023-02-14T23:41:48.207Z,-1.72
2023-02-14T23:44:16.404Z,-1.62
2023-02-14T23:46:44.598Z,-1.57
2023-02-14T23:49:12.714Z,-1.69
2023-02-14T23:51:42.268Z,-1.67
2023-02-14T23:54:10.409Z,-1.68
2023-02-14T23:56:38.336Z,-1.36
2023-02-14T23:59:06.241Z,-0.92
